sensor_id;sensor_type;location;lat;lon;timestamp;P1;durP1;ratioP1;P2;durP2;ratioP2
49614;SDS011;35517;45.272;9.984;2023-04-25T00:00:48;2.60;;;1.42;;
49614;SDS011;35517;45.272;9.984;2023-04-25T00:03:14;2.50;;;0.80;;
49614;SDS011;35517;45.272;9.984;2023-04-25T00:05:41;2.63;;;1.30;;
49614;SDS011;35517;45.272;9.984;2023-04-25T00:08:08;2.13;;;0.88;;
49614;SDS011;35517;45.272;9.984;2023-04-25T00:10:35;0.93;;;0.63;;
49614;SDS011;35517;45.272;9.984;2023-04-25T00:13:01;2.92;;;0.80;;
49614;SDS011;35517;45.272;9.984;2023-04-25T00:15:28;2.05;;;0.90;;
49614;SDS011;35517;45.272;9.984;2023-04-25T00:17:57;1.85;;;1.02;;
49614;SDS011;35517;45.272;9.984;2023-04-25T00:20:24;3.03;;;1.00;;
49614;SDS011;35517;45.272;9.984;2023-04-25T00:25:44;1.42;;;1.00;;
49614;SDS011;35517;45.272;9.984;2023-04-25T00:28:11;1.77;;;0.90;;
49614;SDS011;35517;45.272;9.984;2023-04-25T00:30:38;2.90;;;0.82;;
49614;SDS011;35517;45.272;9.984;2023-04-25T00:33:05;2.67;;;0.98;;
49614;SDS011;35517;45.272;9.984;2023-04-25T00:35:31;2.10;;;1.02;;
49614;SDS011;35517;45.272;9.984;2023-04-25T00:37:58;2.25;;;0.70;;
49614;SDS011;35517;45.272;9.984;2023-04-25T00:40:24;1.83;;;0.80;;
49614;SDS011;35517;45.272;9.984;2023-04-25T00:42:51;2.85;;;0.90;;
49614;SDS011;35517;45.272;9.984;2023-04-25T00:45:18;1.90;;;0.85;;
49614;SDS011;35517;45.272;9.984;2023-04-25T00:47:46;2.58;;;1.15;;
49614;SDS011;35517;45.272;9.984;2023-04-25T00:50:15;1.48;;;0.75;;
49614;SDS011;35517;45.272;9.984;2023-04-25T00:52:43;2.67;;;1.10;;
49614;SDS011;35517;45.272;9.984;2023-04-25T00:55:10;2.58;;;1.00;;
49614;SDS011;35517;45.272;9.984;2023-04-25T00:57:38;2.05;;;1.23;;
49614;SDS011;35517;45.272;9.984;2023-04-25T01:00:05;2.25;;;1.23;;
49614;SDS011;35517;45.272;9.984;2023-04-25T01:02:35;4.45;;;1.48;;
49614;SDS011;35517;45.272;9.984;2023-04-25T01:05:02;2.20;;;1.58;;
49614;SDS011;35517;45.272;9.984;2023-04-25T01:07:29;3.50;;;2.10;;
49614;SDS011;35517;45.272;9.984;2023-04-25T01:09:56;4.22;;;1.83;;
49614;SDS011;35517;45.272;9.984;2023-04-25T01:12:22;2.38;;;1.50;;
49614;SDS011;35517;45.272;9.984;2023-04-25T01:14:49;2.40;;;1.58;;
49614;SDS011;35517;45.272;9.984;2023-04-25T01:17:16;2.65;;;1.70;;
49614;SDS011;35517;45.272;9.984;2023-04-25T01:19:43;2.38;;;1.80;;
49614;SDS011;35517;45.272;9.984;2023-04-25T01:22:11;2.03;;;1.50;;
49614;SDS011;35517;45.272;9.984;2023-04-25T01:24:38;3.97;;;2.10;;
49614;SDS011;35517;45.272;9.984;2023-04-25T01:27:04;2.67;;;1.48;;
49614;SDS011;35517;45.272;9.984;2023-04-25T01:29:32;1.70;;;1.30;;
49614;SDS011;35517;45.272;9.984;2023-04-25T01:31:59;3.40;;;1.50;;
49614;SDS011;35517;45.272;9.984;2023-04-25T01:34:25;2.33;;;1.17;;
49614;SDS011;35517;45.272;9.984;2023-04-25T01:36:52;5.50;;;1.60;;
49614;SDS011;35517;45.272;9.984;2023-04-25T01:39:19;3.72;;;1.92;;
49614;SDS011;35517;45.272;9.984;2023-04-25T01:41:46;2.47;;;2.05;;
49614;SDS011;35517;45.272;9.984;2023-04-25T01:44:13;2.10;;;1.35;;
49614;SDS011;35517;45.272;9.984;2023-04-25T01:46:40;2.00;;;1.65;;
49614;SDS011;35517;45.272;9.984;2023-04-25T01:49:06;2.35;;;1.23;;
49614;SDS011;35517;45.272;9.984;2023-04-25T01:51:33;4.20;;;2.40;;
49614;SDS011;35517;45.272;9.984;2023-04-25T01:54:00;8.38;;;1.50;;
49614;SDS011;35517;45.272;9.984;2023-04-25T01:56:30;1.45;;;1.23;;
49614;SDS011;35517;45.272;9.984;2023-04-25T02:04:37;1.35;;;0.90;;
49614;SDS011;35517;45.272;9.984;2023-04-25T02:07:04;2.03;;;1.27;;
49614;SDS011;35517;45.272;9.984;2023-04-25T02:09:43;3.22;;;1.23;;
49614;SDS011;35517;45.272;9.984;2023-04-25T02:12:11;2.40;;;1.27;;
49614;SDS011;35517;45.272;9.984;2023-04-25T02:15:00;2.35;;;1.15;;
49614;SDS011;35517;45.272;9.984;2023-04-25T02:17:56;1.60;;;0.90;;
49614;SDS011;35517;45.272;9.984;2023-04-25T02:20:23;3.15;;;1.13;;
49614;SDS011;35517;45.272;9.984;2023-04-25T02:22:50;1.83;;;1.17;;
49614;SDS011;35517;45.272;9.984;2023-04-25T02:25:17;3.35;;;1.25;;
49614;SDS011;35517;45.272;9.984;2023-04-25T02:27:46;1.70;;;0.90;;
49614;SDS011;35517;45.272;9.984;2023-04-25T02:30:12;3.08;;;1.25;;
49614;SDS011;35517;45.272;9.984;2023-04-25T02:32:39;1.83;;;1.55;;
49614;SDS011;35517;45.272;9.984;2023-04-25T02:35:06;1.38;;;1.02;;
49614;SDS011;35517;45.272;9.984;2023-04-25T02:37:33;2.70;;;0.88;;
49614;SDS011;35517;45.272;9.984;2023-04-25T02:40:00;1.88;;;0.90;;
49614;SDS011;35517;45.272;9.984;2023-04-25T02:45:33;2.40;;;0.95;;
49614;SDS011;35517;45.272;9.984;2023-04-25T02:48:00;1.08;;;0.88;;
49614;SDS011;35517;45.272;9.984;2023-04-25T02:50:30;2.33;;;0.70;;
49614;SDS011;35517;45.272;9.984;2023-04-25T02:52:57;3.75;;;0.95;;
49614;SDS011;35517;45.272;9.984;2023-04-25T02:55:29;1.85;;;1.23;;
49614;SDS011;35517;45.272;9.984;2023-04-25T02:57:56;2.42;;;0.88;;
49614;SDS011;35517;45.272;9.984;2023-04-25T03:00:45;1.77;;;0.80;;
49614;SDS011;35517;45.272;9.984;2023-04-25T03:03:12;1.88;;;0.85;;
49614;SDS011;35517;45.272;9.984;2023-04-25T03:05:39;3.38;;;1.15;;
49614;SDS011;35517;45.272;9.984;2023-04-25T03:08:06;1.42;;;0.70;;
49614;SDS011;35517;45.272;9.984;2023-04-25T03:10:33;1.88;;;0.90;;
49614;SDS011;35517;45.272;9.984;2023-04-25T03:13:04;3.95;;;0.52;;
49614;SDS011;35517;45.272;9.984;2023-04-25T03:15:30;1.73;;;0.90;;
49614;SDS011;35517;45.272;9.984;2023-04-25T03:17:57;1.45;;;0.90;;
49614;SDS011;35517;45.272;9.984;2023-04-25T03:20:24;2.83;;;0.90;;
49614;SDS011;35517;45.272;9.984;2023-04-25T03:22:54;5.50;;;2.65;;
49614;SDS011;35517;45.272;9.984;2023-04-25T03:25:20;3.83;;;1.85;;
49614;SDS011;35517;45.272;9.984;2023-04-25T03:27:47;2.63;;;1.00;;
49614;SDS011;35517;45.272;9.984;2023-04-25T03:30:13;3.75;;;1.17;;
49614;SDS011;35517;45.272;9.984;2023-04-25T03:32:42;1.48;;;1.13;;
49614;SDS011;35517;45.272;9.984;2023-04-25T03:35:08;1.00;;;0.85;;
49614;SDS011;35517;45.272;9.984;2023-04-25T03:37:35;3.15;;;1.27;;
49614;SDS011;35517;45.272;9.984;2023-04-25T03:40:02;2.25;;;1.00;;
49614;SDS011;35517;45.272;9.984;2023-04-25T03:42:49;1.90;;;1.40;;
49614;SDS011;35517;45.272;9.984;2023-04-25T03:45:17;2.17;;;1.10;;
49614;SDS011;35517;45.272;9.984;2023-04-25T03:47:43;2.92;;;1.05;;
49614;SDS011;35517;45.272;9.984;2023-04-25T03:50:10;3.65;;;1.45;;
49614;SDS011;35517;45.272;9.984;2023-04-25T03:52:37;3.40;;;1.40;;
49614;SDS011;35517;45.272;9.984;2023-04-25T03:55:03;3.15;;;0.98;;
49614;SDS011;35517;45.272;9.984;2023-04-25T03:57:30;1.08;;;0.80;;
49614;SDS011;35517;45.272;9.984;2023-04-25T04:02:56;1.67;;;0.90;;
49614;SDS011;35517;45.272;9.984;2023-04-25T04:05:23;2.95;;;1.23;;
49614;SDS011;35517;45.272;9.984;2023-04-25T04:07:53;1.40;;;1.08;;
49614;SDS011;35517;45.272;9.984;2023-04-25T04:10:21;1.90;;;1.30;;
49614;SDS011;35517;45.272;9.984;2023-04-25T04:12:48;3.03;;;2.00;;
49614;SDS011;35517;45.272;9.984;2023-04-25T04:15:14;4.05;;;1.95;;
49614;SDS011;35517;45.272;9.984;2023-04-25T04:17:43;2.42;;;2.10;;
49614;SDS011;35517;45.272;9.984;2023-04-25T04:20:10;3.35;;;2.45;;
49614;SDS011;35517;45.272;9.984;2023-04-25T04:22:38;6.90;;;5.00;;
49614;SDS011;35517;45.272;9.984;2023-04-25T04:25:09;7.05;;;3.67;;
49614;SDS011;35517;45.272;9.984;2023-04-25T04:28:06;4.60;;;2.80;;
49614;SDS011;35517;45.272;9.984;2023-04-25T04:30:39;4.65;;;2.15;;
49614;SDS011;35517;45.272;9.984;2023-04-25T04:33:08;5.30;;;2.33;;
49614;SDS011;35517;45.272;9.984;2023-04-25T04:35:35;4.95;;;2.20;;
49614;SDS011;35517;45.272;9.984;2023-04-25T04:38:01;8.43;;;1.80;;
49614;SDS011;35517;45.272;9.984;2023-04-25T04:40:32;4.78;;;2.00;;
49614;SDS011;35517;45.272;9.984;2023-04-25T04:43:08;4.13;;;2.03;;
49614;SDS011;35517;45.272;9.984;2023-04-25T04:45:52;3.95;;;2.08;;
49614;SDS011;35517;45.272;9.984;2023-04-25T04:48:38;4.25;;;2.53;;
49614;SDS011;35517;45.272;9.984;2023-04-25T04:51:14;5.28;;;2.38;;
49614;SDS011;35517;45.272;9.984;2023-04-25T04:53:52;5.50;;;2.10;;
49614;SDS011;35517;45.272;9.984;2023-04-25T04:56:55;3.70;;;1.83;;
49614;SDS011;35517;45.272;9.984;2023-04-25T04:59:40;3.03;;;2.20;;
49614;SDS011;35517;45.272;9.984;2023-04-25T05:02:29;2.08;;;1.70;;
49614;SDS011;35517;45.272;9.984;2023-04-25T05:05:28;5.03;;;1.75;;
49614;SDS011;35517;45.272;9.984;2023-04-25T05:07:57;5.45;;;2.00;;
49614;SDS011;35517;45.272;9.984;2023-04-25T05:10:53;7.43;;;2.38;;
49614;SDS011;35517;45.272;9.984;2023-04-25T05:13:51;3.20;;;1.65;;
49614;SDS011;35517;45.272;9.984;2023-04-25T05:16:38;4.78;;;1.63;;
49614;SDS011;35517;45.272;9.984;2023-04-25T05:19:25;4.15;;;1.83;;
49614;SDS011;35517;45.272;9.984;2023-04-25T05:22:10;2.33;;;1.35;;
49614;SDS011;35517;45.272;9.984;2023-04-25T05:24:50;1.48;;;1.38;;
49614;SDS011;35517;45.272;9.984;2023-04-25T05:27:30;2.40;;;1.40;;
49614;SDS011;35517;45.272;9.984;2023-04-25T05:30:23;2.80;;;1.63;;
49614;SDS011;35517;45.272;9.984;2023-04-25T05:33:28;3.05;;;1.60;;
49614;SDS011;35517;45.272;9.984;2023-04-25T05:35:54;5.68;;;2.47;;
49614;SDS011;35517;45.272;9.984;2023-04-25T05:38:22;5.32;;;1.90;;
49614;SDS011;35517;45.272;9.984;2023-04-25T05:41:07;5.40;;;1.88;;
49614;SDS011;35517;45.272;9.984;2023-04-25T05:43:56;3.20;;;1.98;;
49614;SDS011;35517;45.272;9.984;2023-04-25T05:46:35;3.33;;;1.80;;
49614;SDS011;35517;45.272;9.984;2023-04-25T05:49:21;2.22;;;1.65;;
49614;SDS011;35517;45.272;9.984;2023-04-25T05:51:57;3.95;;;1.48;;
49614;SDS011;35517;45.272;9.984;2023-04-25T05:54:41;5.40;;;2.10;;
49614;SDS011;35517;45.272;9.984;2023-04-25T05:57:08;4.32;;;2.00;;
49614;SDS011;35517;45.272;9.984;2023-04-25T05:59:34;4.40;;;1.70;;
49614;SDS011;35517;45.272;9.984;2023-04-25T06:02:01;10.50;;;2.38;;
49614;SDS011;35517;45.272;9.984;2023-04-25T06:04:31;3.22;;;1.85;;
49614;SDS011;35517;45.272;9.984;2023-04-25T06:06:58;3.22;;;2.00;;
49614;SDS011;35517;45.272;9.984;2023-04-25T06:09:26;3.53;;;1.90;;
49614;SDS011;35517;45.272;9.984;2023-04-25T06:11:53;4.38;;;1.40;;
49614;SDS011;35517;45.272;9.984;2023-04-25T06:14:26;2.42;;;1.10;;
49614;SDS011;35517;45.272;9.984;2023-04-25T06:16:53;1.77;;;1.15;;
49614;SDS011;35517;45.272;9.984;2023-04-25T06:19:19;1.58;;;1.42;;
49614;SDS011;35517;45.272;9.984;2023-04-25T06:21:46;6.18;;;1.48;;
49614;SDS011;35517;45.272;9.984;2023-04-25T06:24:13;4.53;;;1.48;;
49614;SDS011;35517;45.272;9.984;2023-04-25T06:26:39;6.20;;;1.50;;
49614;SDS011;35517;45.272;9.984;2023-04-25T06:32:45;5.68;;;1.75;;
49614;SDS011;35517;45.272;9.984;2023-04-25T06:38:37;2.30;;;1.40;;
49614;SDS011;35517;45.272;9.984;2023-04-25T06:41:04;1.52;;;0.88;;
49614;SDS011;35517;45.272;9.984;2023-04-25T06:43:56;1.25;;;0.90;;
49614;SDS011;35517;45.272;9.984;2023-04-25T06:49:41;4.80;;;0.88;;
49614;SDS011;35517;45.272;9.984;2023-04-25T06:52:10;2.97;;;0.90;;
49614;SDS011;35517;45.272;9.984;2023-04-25T06:54:41;1.58;;;1.00;;
49614;SDS011;35517;45.272;9.984;2023-04-25T07:00:52;0.60;;;0.40;;
49614;SDS011;35517;45.272;9.984;2023-04-25T07:03:24;2.10;;;0.60;;
49614;SDS011;35517;45.272;9.984;2023-04-25T07:05:56;3.53;;;0.60;;
49614;SDS011;35517;45.272;9.984;2023-04-25T07:08:25;9.98;;;0.77;;
49614;SDS011;35517;45.272;9.984;2023-04-25T07:11:01;1.45;;;0.50;;
49614;SDS011;35517;45.272;9.984;2023-04-25T07:13:28;0.43;;;0.35;;
49614;SDS011;35517;45.272;9.984;2023-04-25T07:15:55;0.93;;;0.40;;
49614;SDS011;35517;45.272;9.984;2023-04-25T07:18:28;0.50;;;0.28;;
49614;SDS011;35517;45.272;9.984;2023-04-25T07:21:20;1.15;;;0.82;;
49614;SDS011;35517;45.272;9.984;2023-04-25T07:23:56;1.75;;;0.30;;
49614;SDS011;35517;45.272;9.984;2023-04-25T07:26:31;1.63;;;0.30;;
49614;SDS011;35517;45.272;9.984;2023-04-25T07:29:32;1.65;;;0.50;;
49614;SDS011;35517;45.272;9.984;2023-04-25T07:32:09;1.17;;;0.57;;
49614;SDS011;35517;45.272;9.984;2023-04-25T07:34:43;0.30;;;0.25;;
49614;SDS011;35517;45.272;9.984;2023-04-25T07:37:10;0.75;;;0.40;;
49614;SDS011;35517;45.272;9.984;2023-04-25T07:39:49;1.35;;;0.50;;
49614;SDS011;35517;45.272;9.984;2023-04-25T07:42:24;2.65;;;0.38;;
49614;SDS011;35517;45.272;9.984;2023-04-25T07:45:45;3.25;;;0.52;;
49614;SDS011;35517;45.272;9.984;2023-04-25T07:52:48;1.50;;;0.10;;
49614;SDS011;35517;45.272;9.984;2023-04-25T07:55:31;2.20;;;0.40;;
49614;SDS011;35517;45.272;9.984;2023-04-25T07:58:15;2.42;;;0.30;;
49614;SDS011;35517;45.272;9.984;2023-04-25T08:00:47;0.52;;;0.25;;
49614;SDS011;35517;45.272;9.984;2023-04-25T08:03:35;1.95;;;0.35;;
49614;SDS011;35517;45.272;9.984;2023-04-25T08:10:37;0.80;;;0.32;;
49614;SDS011;35517;45.272;9.984;2023-04-25T08:14:27;0.63;;;0.45;;
49614;SDS011;35517;45.272;9.984;2023-04-25T08:20:37;1.65;;;0.70;;
49614;SDS011;35517;45.272;9.984;2023-04-25T08:23:20;1.08;;;0.50;;
49614;SDS011;35517;45.272;9.984;2023-04-25T08:29:20;0.85;;;0.40;;
49614;SDS011;35517;45.272;9.984;2023-04-25T08:31:49;2.28;;;0.75;;
49614;SDS011;35517;45.272;9.984;2023-04-25T08:38:53;0.45;;;0.22;;
49614;SDS011;35517;45.272;9.984;2023-04-25T08:52:27;4.30;;;0.50;;
49614;SDS011;35517;45.272;9.984;2023-04-25T08:54:56;1.00;;;0.30;;
49614;SDS011;35517;45.272;9.984;2023-04-25T08:57:24;1.40;;;0.57;;
49614;SDS011;35517;45.272;9.984;2023-04-25T08:59:51;1.48;;;0.38;;
49614;SDS011;35517;45.272;9.984;2023-04-25T09:02:18;1.50;;;0.10;;
49614;SDS011;35517;45.272;9.984;2023-04-25T09:04:48;2.30;;;0.20;;
49614;SDS011;35517;45.272;9.984;2023-04-25T09:08:09;2.22;;;0.10;;
49614;SDS011;35517;45.272;9.984;2023-04-25T09:10:43;0.82;;;0.25;;
49614;SDS011;35517;45.272;9.984;2023-04-25T09:13:14;0.45;;;0.25;;
49614;SDS011;35517;45.272;9.984;2023-04-25T09:16:09;1.55;;;0.63;;
49614;SDS011;35517;45.272;9.984;2023-04-25T09:18:58;0.25;;;0.20;;
49614;SDS011;35517;45.272;9.984;2023-04-25T09:21:28;1.63;;;1.00;;
49614;SDS011;35517;45.272;9.984;2023-04-25T09:23:56;1.05;;;0.20;;
49614;SDS011;35517;45.272;9.984;2023-04-25T09:26:34;3.13;;;0.50;;
49614;SDS011;35517;45.272;9.984;2023-04-25T09:29:06;0.57;;;0.22;;
49614;SDS011;35517;45.272;9.984;2023-04-25T09:31:34;0.67;;;0.30;;
49614;SDS011;35517;45.272;9.984;2023-04-25T09:34:03;0.80;;;0.60;;
49614;SDS011;35517;45.272;9.984;2023-04-25T09:36:38;0.65;;;0.32;;
49614;SDS011;35517;45.272;9.984;2023-04-25T09:39:33;0.70;;;0.20;;
49614;SDS011;35517;45.272;9.984;2023-04-25T09:42:11;1.20;;;0.30;;
49614;SDS011;35517;45.272;9.984;2023-04-25T09:44:37;0.40;;;0.30;;
49614;SDS011;35517;45.272;9.984;2023-04-25T09:47:09;1.17;;;0.38;;
49614;SDS011;35517;45.272;9.984;2023-04-25T09:49:38;1.23;;;0.25;;
49614;SDS011;35517;45.272;9.984;2023-04-25T09:52:09;2.58;;;1.38;;
49614;SDS011;35517;45.272;9.984;2023-04-25T09:54:47;0.50;;;0.38;;
49614;SDS011;35517;45.272;9.984;2023-04-25T09:59:50;0.73;;;0.40;;
49614;SDS011;35517;45.272;9.984;2023-04-25T10:02:18;0.43;;;0.40;;
49614;SDS011;35517;45.272;9.984;2023-04-25T10:04:50;0.38;;;0.30;;
49614;SDS011;35517;45.272;9.984;2023-04-25T10:07:27;0.70;;;0.20;;
49614;SDS011;35517;45.272;9.984;2023-04-25T10:10:00;0.90;;;0.20;;
49614;SDS011;35517;45.272;9.984;2023-04-25T10:12:29;0.52;;;0.20;;
49614;SDS011;35517;45.272;9.984;2023-04-25T10:14:59;1.65;;;0.82;;
49614;SDS011;35517;45.272;9.984;2023-04-25T10:17:27;1.65;;;0.10;;
49614;SDS011;35517;45.272;9.984;2023-04-25T10:19:54;0.90;;;0.10;;
49614;SDS011;35517;45.272;9.984;2023-04-25T10:22:23;0.32;;;0.10;;
49614;SDS011;35517;45.272;9.984;2023-04-25T10:24:55;0.40;;;0.10;;
49614;SDS011;35517;45.272;9.984;2023-04-25T10:27:29;1.85;;;0.10;;
49614;SDS011;35517;45.272;9.984;2023-04-25T10:30:05;0.82;;;0.08;;
49614;SDS011;35517;45.272;9.984;2023-04-25T10:32:32;0.20;;;0.13;;
49614;SDS011;35517;45.272;9.984;2023-04-25T10:35:09;0.20;;;0.10;;
49614;SDS011;35517;45.272;9.984;2023-04-25T10:37:36;1.05;;;0.50;;
49614;SDS011;35517;45.272;9.984;2023-04-25T10:40:10;2.15;;;0.22;;
49614;SDS011;35517;45.272;9.984;2023-04-25T10:42:37;0.10;;;0.00;;
49614;SDS011;35517;45.272;9.984;2023-04-25T10:45:04;1.83;;;0.20;;
49614;SDS011;35517;45.272;9.984;2023-04-25T10:47:36;0.90;;;0.60;;
49614;SDS011;35517;45.272;9.984;2023-04-25T10:50:09;1.80;;;1.10;;
49614;SDS011;35517;45.272;9.984;2023-04-25T10:52:38;0.08;;;0.00;;
49614;SDS011;35517;45.272;9.984;2023-04-25T10:55:08;0.30;;;0.10;;
49614;SDS011;35517;45.272;9.984;2023-04-25T10:57:40;1.65;;;0.20;;
49614;SDS011;35517;45.272;9.984;2023-04-25T11:00:14;0.32;;;0.00;;
49614;SDS011;35517;45.272;9.984;2023-04-25T11:02:45;1.75;;;0.10;;
49614;SDS011;35517;45.272;9.984;2023-04-25T11:05:20;2.92;;;0.10;;
49614;SDS011;35517;45.272;9.984;2023-04-25T11:07:51;1.23;;;0.20;;
49614;SDS011;35517;45.272;9.984;2023-04-25T11:10:18;0.95;;;0.40;;
49614;SDS011;35517;45.272;9.984;2023-04-25T11:12:45;5.65;;;0.60;;
49614;SDS011;35517;45.272;9.984;2023-04-25T11:15:13;4.78;;;0.73;;
49614;SDS011;35517;45.272;9.984;2023-04-25T11:17:39;0.55;;;0.10;;
49614;SDS011;35517;45.272;9.984;2023-04-25T11:20:07;2.05;;;0.55;;
49614;SDS011;35517;45.272;9.984;2023-04-25T11:22:40;2.30;;;0.20;;
49614;SDS011;35517;45.272;9.984;2023-04-25T11:25:07;1.38;;;0.20;;
49614;SDS011;35517;45.272;9.984;2023-04-25T11:27:34;1.25;;;0.20;;
49614;SDS011;35517;45.272;9.984;2023-04-25T11:30:15;1.38;;;0.15;;
49614;SDS011;35517;45.272;9.984;2023-04-25T11:32:42;1.58;;;0.20;;
49614;SDS011;35517;45.272;9.984;2023-04-25T11:35:09;0.75;;;0.20;;
49614;SDS011;35517;45.272;9.984;2023-04-25T11:37:36;0.20;;;0.10;;
49614;SDS011;35517;45.272;9.984;2023-04-25T11:40:02;1.65;;;0.30;;
49614;SDS011;35517;45.272;9.984;2023-04-25T11:42:32;0.20;;;0.10;;
49614;SDS011;35517;45.272;9.984;2023-04-25T11:45:02;1.58;;;0.22;;
49614;SDS011;35517;45.272;9.984;2023-04-25T11:47:30;2.75;;;0.30;;
49614;SDS011;35517;45.272;9.984;2023-04-25T11:50:00;1.02;;;0.28;;
49614;SDS011;35517;45.272;9.984;2023-04-25T11:52:39;0.30;;;0.10;;
49614;SDS011;35517;45.272;9.984;2023-04-25T11:55:09;0.75;;;0.30;;
49614;SDS011;35517;45.272;9.984;2023-04-25T11:57:40;2.22;;;0.32;;
49614;SDS011;35517;45.272;9.984;2023-04-25T12:00:12;0.38;;;0.17;;
49614;SDS011;35517;45.272;9.984;2023-04-25T12:02:46;0.95;;;0.50;;
49614;SDS011;35517;45.272;9.984;2023-04-25T12:05:14;2.03;;;0.40;;
49614;SDS011;35517;45.272;9.984;2023-04-25T12:07:44;3.55;;;0.25;;
49614;SDS011;35517;45.272;9.984;2023-04-25T12:10:11;1.35;;;0.30;;
49614;SDS011;35517;45.272;9.984;2023-04-25T12:12:41;2.78;;;0.93;;
49614;SDS011;35517;45.272;9.984;2023-04-25T12:15:09;4.47;;;0.30;;
49614;SDS011;35517;45.272;9.984;2023-04-25T12:17:37;4.13;;;0.40;;
49614;SDS011;35517;45.272;9.984;2023-04-25T12:20:10;1.00;;;0.20;;
49614;SDS011;35517;45.272;9.984;2023-04-25T12:22:38;0.65;;;0.22;;
49614;SDS011;35517;45.272;9.984;2023-04-25T12:25:13;2.97;;;0.90;;
49614;SDS011;35517;45.272;9.984;2023-04-25T12:27:40;0.98;;;0.30;;
49614;SDS011;35517;45.272;9.984;2023-04-25T12:30:07;1.33;;;0.63;;
49614;SDS011;35517;45.272;9.984;2023-04-25T12:32:34;0.68;;;0.47;;
49614;SDS011;35517;45.272;9.984;2023-04-25T12:35:01;2.55;;;0.40;;
49614;SDS011;35517;45.272;9.984;2023-04-25T12:37:28;2.95;;;0.40;;
49614;SDS011;35517;45.272;9.984;2023-04-25T12:39:55;3.33;;;1.33;;
49614;SDS011;35517;45.272;9.984;2023-04-25T12:42:21;1.48;;;0.73;;
49614;SDS011;35517;45.272;9.984;2023-04-25T12:44:53;4.07;;;0.38;;
49614;SDS011;35517;45.272;9.984;2023-04-25T12:47:20;1.40;;;0.20;;
49614;SDS011;35517;45.272;9.984;2023-04-25T12:49:46;0.75;;;0.30;;
49614;SDS011;35517;45.272;9.984;2023-04-25T12:52:14;2.38;;;0.80;;
49614;SDS011;35517;45.272;9.984;2023-04-25T12:54:42;0.22;;;0.22;;
49614;SDS011;35517;45.272;9.984;2023-04-25T12:57:10;2.47;;;0.40;;
49614;SDS011;35517;45.272;9.984;2023-04-25T12:59:37;1.05;;;0.30;;
49614;SDS011;35517;45.272;9.984;2023-04-25T13:02:03;3.00;;;0.43;;
49614;SDS011;35517;45.272;9.984;2023-04-25T13:04:30;1.15;;;0.30;;
49614;SDS011;35517;45.272;9.984;2023-04-25T13:07:10;0.85;;;0.50;;
49614;SDS011;35517;45.272;9.984;2023-04-25T13:09:36;1.05;;;0.85;;
49614;SDS011;35517;45.272;9.984;2023-04-25T13:12:03;1.83;;;0.50;;
49614;SDS011;35517;45.272;9.984;2023-04-25T13:14:31;1.08;;;0.50;;
49614;SDS011;35517;45.272;9.984;2023-04-25T13:16:58;2.67;;;0.70;;
49614;SDS011;35517;45.272;9.984;2023-04-25T13:19:24;4.43;;;0.80;;
49614;SDS011;35517;45.272;9.984;2023-04-25T13:21:51;3.97;;;0.47;;
49614;SDS011;35517;45.272;9.984;2023-04-25T13:24:18;1.80;;;0.93;;
49614;SDS011;35517;45.272;9.984;2023-04-25T13:26:44;3.35;;;0.50;;
49614;SDS011;35517;45.272;9.984;2023-04-25T13:29:11;1.92;;;0.65;;
49614;SDS011;35517;45.272;9.984;2023-04-25T13:31:37;1.63;;;0.60;;
49614;SDS011;35517;45.272;9.984;2023-04-25T13:34:05;2.42;;;0.70;;
49614;SDS011;35517;45.272;9.984;2023-04-25T13:36:31;1.15;;;0.40;;
49614;SDS011;35517;45.272;9.984;2023-04-25T13:38:58;1.00;;;0.60;;
49614;SDS011;35517;45.272;9.984;2023-04-25T13:41:24;3.72;;;1.05;;
49614;SDS011;35517;45.272;9.984;2023-04-25T13:43:53;2.63;;;0.60;;
49614;SDS011;35517;45.272;9.984;2023-04-25T13:46:19;2.72;;;0.85;;
49614;SDS011;35517;45.272;9.984;2023-04-25T13:48:46;3.03;;;0.60;;
49614;SDS011;35517;45.272;9.984;2023-04-25T13:51:15;1.98;;;0.70;;
49614;SDS011;35517;45.272;9.984;2023-04-25T13:53:43;4.10;;;0.70;;
49614;SDS011;35517;45.272;9.984;2023-04-25T13:56:10;3.63;;;0.50;;
49614;SDS011;35517;45.272;9.984;2023-04-25T13:58:37;2.30;;;0.47;;
49614;SDS011;35517;45.272;9.984;2023-04-25T14:01:04;2.25;;;0.60;;
49614;SDS011;35517;45.272;9.984;2023-04-25T14:03:31;3.58;;;1.00;;
49614;SDS011;35517;45.272;9.984;2023-04-25T14:05:57;2.28;;;0.65;;
49614;SDS011;35517;45.272;9.984;2023-04-25T14:08:24;3.00;;;0.85;;
49614;SDS011;35517;45.272;9.984;2023-04-25T14:10:51;2.00;;;0.93;;
49614;SDS011;35517;45.272;9.984;2023-04-25T14:13:17;1.52;;;0.60;;
49614;SDS011;35517;45.272;9.984;2023-04-25T14:15:44;1.58;;;0.60;;
49614;SDS011;35517;45.272;9.984;2023-04-25T14:18:10;2.10;;;0.50;;
49614;SDS011;35517;45.272;9.984;2023-04-25T14:20:37;1.77;;;0.60;;
49614;SDS011;35517;45.272;9.984;2023-04-25T14:23:03;0.82;;;0.43;;
49614;SDS011;35517;45.272;9.984;2023-04-25T14:25:30;1.65;;;0.50;;
49614;SDS011;35517;45.272;9.984;2023-04-25T14:27:57;8.23;;;0.80;;
49614;SDS011;35517;45.272;9.984;2023-04-25T14:30:23;2.35;;;0.63;;
49614;SDS011;35517;45.272;9.984;2023-04-25T14:32:50;5.22;;;0.95;;
49614;SDS011;35517;45.272;9.984;2023-04-25T14:35:17;2.92;;;0.30;;
49614;SDS011;35517;45.272;9.984;2023-04-25T14:37:43;4.00;;;0.47;;
49614;SDS011;35517;45.272;9.984;2023-04-25T14:40:10;0.35;;;0.15;;
49614;SDS011;35517;45.272;9.984;2023-04-25T14:42:39;1.27;;;0.20;;
49614;SDS011;35517;45.272;9.984;2023-04-25T14:45:06;3.15;;;0.40;;
49614;SDS011;35517;45.272;9.984;2023-04-25T14:47:36;0.80;;;0.30;;
49614;SDS011;35517;45.272;9.984;2023-04-25T14:50:03;8.65;;;0.38;;
49614;SDS011;35517;45.272;9.984;2023-04-25T14:52:30;2.70;;;0.57;;
49614;SDS011;35517;45.272;9.984;2023-04-25T14:54:57;5.30;;;1.58;;
49614;SDS011;35517;45.272;9.984;2023-04-25T14:57:26;1.85;;;0.50;;
49614;SDS011;35517;45.272;9.984;2023-04-25T14:59:53;4.43;;;0.70;;
49614;SDS011;35517;45.272;9.984;2023-04-25T15:02:19;4.43;;;0.60;;
49614;SDS011;35517;45.272;9.984;2023-04-25T15:04:46;2.60;;;1.05;;
49614;SDS011;35517;45.272;9.984;2023-04-25T15:07:13;3.63;;;0.60;;
49614;SDS011;35517;45.272;9.984;2023-04-25T15:09:40;1.42;;;0.60;;
49614;SDS011;35517;45.272;9.984;2023-04-25T15:12:08;1.95;;;0.80;;
49614;SDS011;35517;45.272;9.984;2023-04-25T15:14:34;3.30;;;0.47;;
49614;SDS011;35517;45.272;9.984;2023-04-25T15:17:02;1.33;;;0.73;;
49614;SDS011;35517;45.272;9.984;2023-04-25T15:19:28;3.90;;;0.50;;
49614;SDS011;35517;45.272;9.984;2023-04-25T15:21:55;1.80;;;0.40;;
49614;SDS011;35517;45.272;9.984;2023-04-25T15:24:25;4.57;;;0.50;;
49614;SDS011;35517;45.272;9.984;2023-04-25T15:26:52;6.25;;;1.50;;
49614;SDS011;35517;45.272;9.984;2023-04-25T15:29:18;0.73;;;0.52;;
49614;SDS011;35517;45.272;9.984;2023-04-25T15:31:45;1.52;;;0.85;;
49614;SDS011;35517;45.272;9.984;2023-04-25T15:34:12;3.22;;;0.50;;
49614;SDS011;35517;45.272;9.984;2023-04-25T15:36:42;1.08;;;0.70;;
49614;SDS011;35517;45.272;9.984;2023-04-25T15:39:10;2.05;;;0.85;;
49614;SDS011;35517;45.272;9.984;2023-04-25T15:41:37;3.85;;;1.13;;
49614;SDS011;35517;45.272;9.984;2023-04-25T15:44:04;4.28;;;0.60;;
49614;SDS011;35517;45.272;9.984;2023-04-25T15:46:37;3.95;;;0.57;;
49614;SDS011;35517;45.272;9.984;2023-04-25T15:49:03;1.08;;;0.50;;
49614;SDS011;35517;45.272;9.984;2023-04-25T15:51:30;2.10;;;1.20;;
49614;SDS011;35517;45.272;9.984;2023-04-25T15:54:00;2.20;;;1.00;;
49614;SDS011;35517;45.272;9.984;2023-04-25T15:56:27;25.27;;;0.80;;
49614;SDS011;35517;45.272;9.984;2023-04-25T15:58:56;1.48;;;0.57;;
49614;SDS011;35517;45.272;9.984;2023-04-25T16:01:22;3.10;;;0.10;;
49614;SDS011;35517;45.272;9.984;2023-04-25T16:03:50;1.88;;;0.30;;
49614;SDS011;35517;45.272;9.984;2023-04-25T16:06:17;0.40;;;0.10;;
49614;SDS011;35517;45.272;9.984;2023-04-25T16:08:58;1.15;;;0.20;;
49614;SDS011;35517;45.272;9.984;2023-04-25T16:11:24;1.10;;;0.10;;
49614;SDS011;35517;45.272;9.984;2023-04-25T16:13:53;0.28;;;0.10;;